createdAt,value
2018-09-08T00:01:10.119Z,66.21
2018-09-08T00:03:39.124Z,66.28
2018-09-08T00:06:08.124Z,66.01
2018-09-08T00:08:37.145Z,65.88
2018-09-08T00:11:06.423Z,65.85
2018-09-08T00:13:35.421Z,65.58
2018-09-08T00:16:09.559Z,65.61
2018-09-08T00:18:43.737Z,65.43
2018-09-08T00:21:18.425Z,65.31
2018-09-08T00:23:52.742Z,65.24
2018-09-08T00:26:26.866Z,65.23
2018-09-08T00:29:00.474Z,65.27
2018-09-08T00:31:29.567Z,65.13
2018-09-08T00:33:58.630Z,65.07
2018-09-08T00:36:27.725Z,64.89
2018-09-08T00:38:56.794Z,64.92
2018-09-08T00:41:25.975Z,64.96
2018-09-08T00:43:55.075Z,64.91
2018-09-08T00:46:24.205Z,64.95
2018-09-08T00:48:53.385Z,65.24
2018-09-08T00:51:22.462Z,65.62
2018-09-08T00:53:51.654Z,65.67
2018-09-08T00:56:20.735Z,66.20
2018-09-08T00:58:55.770Z,66.17
2018-09-08T01:01:24.863Z,66.57
2018-09-08T01:03:54.018Z,66.78
2018-09-08T01:06:23.166Z,66.79
2018-09-08T01:08:52.269Z,67.28
2018-09-08T01:11:21.356Z,66.91
2018-09-08T01:13:50.551Z,67.34
2018-09-08T01:16:20.520Z,67.32
2018-09-08T01:18:49.561Z,67.30
2018-09-08T01:21:18.685Z,67.44
2018-09-08T01:23:50.527Z,67.46
2018-09-08T01:26:20.542Z,67.52
2018-09-08T01:28:50.572Z,67.57
2018-09-08T01:31:20.134Z,67.79
2018-09-08T01:33:49.329Z,67.59
2018-09-08T01:36:18.389Z,67.41
2018-09-08T01:38:47.509Z,67.40
2018-09-08T01:41:16.618Z,67.49
2018-09-08T01:43:45.646Z,67.73
2018-09-08T01:46:14.682Z,67.88
2018-09-08T01:48:44.662Z,67.51
2018-09-08T01:51:13.807Z,67.52
2018-09-08T01:53:42.956Z,67.81
2018-09-08T01:56:12.124Z,67.89
2018-09-08T01:58:42.091Z,67.81
2018-09-08T02:01:11.412Z,67.69
2018-09-08T02:03:40.615Z,67.82
2018-09-08T02:06:11.065Z,67.81
2018-09-08T02:08:40.211Z,67.69
2018-09-08T02:11:09.302Z,68.01
2018-09-08T02:13:38.396Z,68.04
2018-09-08T02:16:07.651Z,68.24
2018-09-08T02:18:36.722Z,68.22
2018-09-08T02:21:06.047Z,68.16
2018-09-08T02:23:35.072Z,68.37
2018-09-08T02:26:04.153Z,68.32
2018-09-08T02:28:33.861Z,68.44
2018-09-08T02:31:03.048Z,68.33
2018-09-08T02:33:32.179Z,68.43
2018-09-08T02:36:01.287Z,68.50
2018-09-08T02:38:30.329Z,68.71
2018-09-08T02:40:59.480Z,68.80
2018-09-08T02:43:29.412Z,68.86
2018-09-08T02:45:59.392Z,69.17
2018-09-08T02:48:29.568Z,69.22
2018-09-08T02:50:57.072Z,69.04
2018-09-08T02:53:24.642Z,69.39
2018-09-08T02:55:52.154Z,69.26
2018-09-08T02:58:19.812Z,69.44
2018-09-08T03:00:47.318Z,69.20
2018-09-08T03:03:14.850Z,69.29
2018-09-08T03:05:42.403Z,69.17
2018-09-08T03:08:10.011Z,69.52
2018-09-08T03:10:37.532Z,69.93
2018-09-08T03:13:05.038Z,70.41
2018-09-08T03:15:32.631Z,71.04
2018-09-08T03:18:00.169Z,71.25
2018-09-08T03:20:27.700Z,71.97
2018-09-08T03:22:55.223Z,72.42
2018-09-08T03:25:22.719Z,72.50
2018-09-08T03:27:50.249Z,73.02
2018-09-08T03:30:17.758Z,73.30
2018-09-08T03:32:45.364Z,73.64
2018-09-08T03:35:12.912Z,73.61
2018-09-08T03:37:40.422Z,73.80
2018-09-08T03:40:07.946Z,74.04
2018-09-08T03:42:35.624Z,74.21
2018-09-08T03:45:03.152Z,74.49
2018-09-08T03:47:30.666Z,74.52
2018-09-08T03:49:58.195Z,74.67
2018-09-08T03:52:25.737Z,74.90
2018-09-08T03:54:53.263Z,75.08
2018-09-08T03:57:20.761Z,75.00
2018-09-08T03:59:48.269Z,74.58
2018-09-08T04:02:15.809Z,74.93
2018-09-08T04:04:44.902Z,74.70
2018-09-08T04:07:13.986Z,74.74
2018-09-08T04:09:43.024Z,74.70
2018-09-08T04:12:13.022Z,74.86
2018-09-08T04:14:42.121Z,75.07
2018-09-08T04:17:11.163Z,75.47
2018-09-08T04:19:40.221Z,75.24
2018-09-08T04:22:10.242Z,75.61
2018-09-08T04:24:40.120Z,75.47
2018-09-08T04:27:09.731Z,75.77
2018-09-08T04:29:38.947Z,75.88
2018-09-08T04:32:08.100Z,76.02
2018-09-08T04:34:37.129Z,76.24
2018-09-08T04:37:06.567Z,76.19
2018-09-08T04:39:35.628Z,76.16
2018-09-08T04:42:04.664Z,76.25
2018-09-08T04:44:33.722Z,76.37
2018-09-08T04:47:02.818Z,76.38
2018-09-08T04:49:32.007Z,76.21
2018-09-08T04:52:01.072Z,76.18
2018-09-08T04:54:30.165Z,76.62
2018-09-08T04:56:59.280Z,76.42
2018-09-08T04:59:28.318Z,76.52
2018-09-08T05:01:57.374Z,76.77
2018-09-08T05:04:26.410Z,76.58
2018-09-08T05:06:55.460Z,76.65
2018-09-08T05:09:24.573Z,76.68
2018-09-08T05:11:53.736Z,76.69
2018-09-08T05:14:22.781Z,76.53
2018-09-08T05:16:51.891Z,76.90
2018-09-08T05:19:20.923Z,76.48
2018-09-08T05:21:49.963Z,76.87
2018-09-08T05:24:19.060Z,76.68
2018-09-08T05:26:48.191Z,76.77
2018-09-08T05:29:17.210Z,76.69
2018-09-08T05:31:46.916Z,76.82
2018-09-08T05:34:15.933Z,76.60
2018-09-08T05:36:45.647Z,76.69
2018-09-08T05:39:15.406Z,76.74
2018-09-08T05:41:44.446Z,77.03
2018-09-08T05:44:13.606Z,77.01
2018-09-08T05:46:42.640Z,77.00
2018-09-08T05:49:11.875Z,76.78
2018-09-08T05:51:41.630Z,76.68
2018-09-08T05:54:11.822Z,77.21
2018-09-08T05:56:41.542Z,77.47
2018-09-08T05:59:10.562Z,77.71
2018-09-08T06:01:39.761Z,77.81
2018-09-08T06:04:08.913Z,78.07
2018-09-08T06:06:38.259Z,78.57
2018-09-08T06:09:08.557Z,78.54
2018-09-08T06:11:37.728Z,78.65
2018-09-08T06:14:07.926Z,78.63
2018-09-08T06:16:37.019Z,78.76
2018-09-08T06:19:07.245Z,78.58
2018-09-08T06:21:36.256Z,78.53
2018-09-08T06:24:09.489Z,78.75
2018-09-08T06:26:38.749Z,78.61
2018-09-08T06:29:07.770Z,78.88
2018-09-08T06:31:36.784Z,78.72
2018-09-08T06:34:05.842Z,78.45
2018-09-08T06:36:36.352Z,79.10
2018-09-08T06:39:07.796Z,79.26
2018-09-08T06:41:37.017Z,79.46
2018-09-08T06:44:06.158Z,79.36
2018-09-08T06:46:36.124Z,79.24
2018-09-08T06:49:05.948Z,78.88
2018-09-08T06:51:35.718Z,79.01
2018-09-08T06:54:04.826Z,78.89
2018-09-08T06:56:34.820Z,79.12
2018-09-08T06:59:03.817Z,78.89
2018-09-08T07:01:32.809Z,78.66
2018-09-08T07:04:01.805Z,78.76
2018-09-08T07:06:30.997Z,78.71
2018-09-08T07:09:00.105Z,79.09
2018-09-08T07:11:29.108Z,78.42
2018-09-08T07:13:58.205Z,78.46
2018-09-08T07:16:27.312Z,78.60
2018-09-08T07:18:56.661Z,78.31
2018-09-08T07:21:25.708Z,78.56
2018-09-08T07:23:56.635Z,78.08
2018-09-08T07:26:26.171Z,78.29
2018-09-08T07:28:55.237Z,78.23
2018-09-08T07:31:25.095Z,78.21
2018-09-08T07:33:54.329Z,78.01
2018-09-08T07:36:23.419Z,78.42
2018-09-08T07:38:52.564Z,78.29
2018-09-08T07:41:21.642Z,77.93
2018-09-08T07:43:50.767Z,77.88
2018-09-08T07:46:20.006Z,77.85
2018-09-08T07:48:50.124Z,77.37
2018-09-08T07:51:19.193Z,77.61
2018-09-08T07:53:48.358Z,77.33
2018-09-08T07:56:17.480Z,76.91
2018-09-08T07:58:47.239Z,76.89
2018-09-08T08:01:16.445Z,76.56
2018-09-08T08:03:46.436Z,76.50
2018-09-08T08:06:16.419Z,76.21
2018-09-08T08:08:45.472Z,76.35
2018-09-08T08:11:14.508Z,76.33
2018-09-08T08:13:44.001Z,76.19
2018-09-08T08:16:13.693Z,75.84
2018-09-08T08:18:42.726Z,75.97
2018-09-08T08:21:11.846Z,76.00
2018-09-08T08:23:41.023Z,75.70
2018-09-08T08:26:10.335Z,75.87
2018-09-08T08:28:39.370Z,75.40
2018-09-08T08:31:09.047Z,75.55
2018-09-08T08:33:38.164Z,75.52
2018-09-08T08:36:07.199Z,75.57
2018-09-08T08:38:36.264Z,75.44
2018-09-08T08:41:05.558Z,75.75
2018-09-08T08:43:34.665Z,75.51
2018-09-08T08:46:04.012Z,75.34
2018-09-08T08:48:33.177Z,75.16
2018-09-08T08:51:13.258Z,75.12
2018-09-08T08:53:53.218Z,74.87
2018-09-08T08:56:22.361Z,74.84
2018-09-08T08:58:51.453Z,74.61
2018-09-08T09:01:20.916Z,74.54
2018-09-08T09:03:50.429Z,74.47
2018-09-08T09:06:21.746Z,74.31
2018-09-08T09:08:50.760Z,74.32
2018-09-08T09:11:20.185Z,74.64
2018-09-08T09:13:49.895Z,74.35
2018-09-08T09:16:20.491Z,74.43
2018-09-08T09:19:00.731Z,74.08
2018-09-08T09:22:42.775Z,74.25
2018-09-08T09:25:13.068Z,74.21
2018-09-08T09:27:46.373Z,74.02
2018-09-08T09:30:16.347Z,73.87
2018-09-08T09:32:45.839Z,73.56
2018-09-08T09:35:16.348Z,73.41
2018-09-08T09:37:45.460Z,73.14
2018-09-08T09:40:16.875Z,72.78
2018-09-08T09:42:46.824Z,72.58
2018-09-08T09:45:16.106Z,72.30
2018-09-08T09:47:45.230Z,71.83
2018-09-08T09:50:16.559Z,71.55
2018-09-08T09:52:45.886Z,71.38
2018-09-08T09:55:15.255Z,71.14
2018-09-08T09:57:45.955Z,70.94
2018-09-08T10:00:21.509Z,70.88
2018-09-08T10:03:21.191Z,70.85
2018-09-08T10:05:51.950Z,70.50
2018-09-08T10:08:34.601Z,70.24
2018-09-08T10:11:03.794Z,70.16
2018-09-08T10:13:34.214Z,70.10
2018-09-08T10:16:03.291Z,70.04
2018-09-08T10:18:32.347Z,69.69
2018-09-08T10:21:01.404Z,69.53
2018-09-08T10:23:30.603Z,69.44
2018-09-08T10:25:59.711Z,69.09
2018-09-08T10:28:37.736Z,68.97
2018-09-08T10:31:06.969Z,68.74
2018-09-08T10:33:37.144Z,68.52
2018-09-08T10:36:06.332Z,68.57
2018-09-08T10:38:35.814Z,68.51
2018-09-08T10:41:12.194Z,68.37
2018-09-08T10:43:41.327Z,68.24
2018-09-08T10:46:10.934Z,68.13
2018-09-08T10:48:54.239Z,68.01
2018-09-08T10:51:38.083Z,67.90
2018-09-08T10:54:08.537Z,67.79
2018-09-08T10:56:37.889Z,67.81
2018-09-08T10:59:07.135Z,67.45
2018-09-08T11:01:36.376Z,67.36
2018-09-08T11:04:10.766Z,67.04
2018-09-08T11:06:41.201Z,66.95
2018-09-08T11:09:10.551Z,66.71
2018-09-08T11:11:39.730Z,66.60
2018-09-08T11:14:09.248Z,66.50
2018-09-08T11:16:42.479Z,66.32
2018-09-08T11:19:12.747Z,66.20
2018-09-08T11:21:42.069Z,66.11
2018-09-08T11:24:11.793Z,66.08
2018-09-08T11:26:40.954Z,66.15
2018-09-08T11:29:10.062Z,66.17
2018-09-08T11:31:39.203Z,66.13
2018-09-08T11:34:08.283Z,66.24
2018-09-08T11:36:38.316Z,66.29
2018-09-08T11:39:08.515Z,66.02
2018-09-08T11:41:38.421Z,65.94
2018-09-08T11:44:07.565Z,65.92
2018-09-08T11:46:36.601Z,65.88
2018-09-08T11:49:05.759Z,65.37
2018-09-08T11:51:34.893Z,65.10
2018-09-08T11:54:04.320Z,65.09
2018-09-08T11:56:34.186Z,64.91
2018-09-08T11:59:04.881Z,64.89
2018-09-08T12:01:35.094Z,64.78
2018-09-08T12:04:04.174Z,64.75
2018-09-08T12:06:33.323Z,64.37
2018-09-08T12:09:03.132Z,64.31
2018-09-08T12:11:32.215Z,64.29
2018-09-08T12:14:02.419Z,63.99
2018-09-08T12:16:32.502Z,63.98
2018-09-08T12:19:01.813Z,63.88
2018-09-08T12:21:30.878Z,64.04
2018-09-08T12:23:59.948Z,63.63
2018-09-08T12:26:29.186Z,63.40
2018-09-08T12:29:00.266Z,63.25
2018-09-08T12:31:29.797Z,63.19
2018-09-08T12:33:58.869Z,63.20
2018-09-08T12:36:28.143Z,63.25
2018-09-08T12:38:57.358Z,63.34
2018-09-08T12:41:26.341Z,63.41
2018-09-08T12:43:55.401Z,63.48
2018-09-08T12:46:25.422Z,63.42
2018-09-08T12:48:56.929Z,63.45
2018-09-08T12:51:25.977Z,63.65
2018-09-08T12:53:55.321Z,63.51
2018-09-08T12:56:24.425Z,63.55
2018-09-08T12:58:54.025Z,63.67
2018-09-08T13:01:23.360Z,63.50
2018-09-08T13:03:52.585Z,63.84
2018-09-08T13:06:21.976Z,63.33
2018-09-08T13:08:51.256Z,63.62
2018-09-08T13:11:20.388Z,63.55
2018-09-08T13:13:49.522Z,63.60
2018-09-08T13:29:52.294Z,63.14
2018-09-08T13:32:21.425Z,63.13
2018-09-08T13:34:50.706Z,63.18
2018-09-08T13:37:19.936Z,63.31
2018-09-08T13:39:49.273Z,63.51
2018-09-08T13:42:18.582Z,63.55
2018-09-08T13:44:47.827Z,63.53
2018-09-08T13:47:17.947Z,63.61
2018-09-08T13:49:48.150Z,63.84
2018-09-08T13:52:17.472Z,63.83
2018-09-08T13:54:46.638Z,63.75
2018-09-08T13:57:15.869Z,63.60
2018-09-08T13:59:45.040Z,63.84
2018-09-08T14:02:15.363Z,63.59
2018-09-08T14:04:45.049Z,63.51
2018-09-08T14:07:14.150Z,63.36
2018-09-08T14:09:43.350Z,63.29
2018-09-08T14:12:12.527Z,63.20
2018-09-08T14:14:41.718Z,63.12
2018-09-08T14:17:36.962Z,62.98
2018-09-08T14:20:07.083Z,63.06
2018-09-08T14:22:36.284Z,62.83
2018-09-08T14:25:05.564Z,62.86
2018-09-08T14:27:36.364Z,63.10
2018-09-08T14:30:06.286Z,63.06
2018-09-08T14:32:35.663Z,63.11
2018-09-08T14:35:05.326Z,63.13
2018-09-08T14:37:34.548Z,62.99
2018-09-08T14:40:03.770Z,62.72
2018-09-08T14:42:33.438Z,62.84
2018-09-08T14:45:02.520Z,62.80
2018-09-08T14:47:32.855Z,62.84
2018-09-08T14:50:02.651Z,62.72
2018-09-08T14:52:31.868Z,62.59
2018-09-08T14:55:01.012Z,62.62
2018-09-08T14:57:30.180Z,62.48
2018-09-08T14:59:59.251Z,62.82
2018-09-08T15:02:28.604Z,62.44
2018-09-08T15:04:57.797Z,62.78
2018-09-08T15:07:26.859Z,62.70
2018-09-08T15:09:55.983Z,62.60
2018-09-08T15:12:25.115Z,62.52
2018-09-08T15:14:54.222Z,62.66
2018-09-08T15:17:29.359Z,62.52
2018-09-08T15:19:58.506Z,62.98
2018-09-08T15:22:27.627Z,62.77
2018-09-08T15:24:56.716Z,62.54
2018-09-08T15:27:25.845Z,62.67
2018-09-08T15:29:55.157Z,62.39
2018-09-08T15:32:24.309Z,62.79
2018-09-08T15:34:53.518Z,62.76
2018-09-08T15:37:22.613Z,62.61
2018-09-08T15:39:51.913Z,62.62
2018-09-08T15:42:21.016Z,62.80
2018-09-08T15:44:50.155Z,62.78
2018-09-08T15:47:20.436Z,62.84
2018-09-08T15:58:58.013Z,62.87
2018-09-08T16:01:27.149Z,62.86
2018-09-08T16:03:56.390Z,62.89
2018-09-08T16:06:26.109Z,63.06
2018-09-08T16:08:55.240Z,63.07
2018-09-08T16:11:24.387Z,63.17
2018-09-08T16:13:53.484Z,63.06
2018-09-08T16:16:22.675Z,63.20
2018-09-08T16:18:52.929Z,63.09
2018-09-08T16:21:22.614Z,63.33
2018-09-08T16:23:51.766Z,63.46
2018-09-08T16:26:36.203Z,63.54
2018-09-08T16:29:08.081Z,63.80
2018-09-08T16:31:42.411Z,63.86
2018-09-08T16:34:11.529Z,63.73
2018-09-08T16:36:40.735Z,64.16
2018-09-08T16:39:11.307Z,64.40
2018-09-08T16:41:41.129Z,64.53
2018-09-08T16:44:10.535Z,64.69
2018-09-08T16:46:39.578Z,64.71
2018-09-08T16:49:08.641Z,64.85
2018-09-08T16:51:38.692Z,65.24
2018-09-08T16:54:07.998Z,65.56
2018-09-08T16:56:37.155Z,65.80
2018-09-08T16:59:08.763Z,65.81
2018-09-08T17:01:44.330Z,65.95
2018-09-08T17:04:13.451Z,66.14
2018-09-08T17:06:42.700Z,66.16
2018-09-08T17:09:12.586Z,66.45
2018-09-08T17:11:41.825Z,66.48
2018-09-08T17:14:10.864Z,66.84
2018-09-08T17:16:40.290Z,66.99
2018-09-08T17:19:10.478Z,67.43
2018-09-08T17:21:39.552Z,67.80
2018-09-08T17:24:08.603Z,68.00
2018-09-08T17:26:38.493Z,68.03
2018-09-08T17:29:07.673Z,68.17
2018-09-08T17:31:36.834Z,68.69
2018-09-08T17:34:06.571Z,69.08
2018-09-08T17:36:36.309Z,68.93
2018-09-08T17:39:12.010Z,68.80
2018-09-08T17:41:41.017Z,68.95
2018-09-08T17:44:10.384Z,69.15
2018-09-08T17:46:39.489Z,69.39
2018-09-08T17:49:08.610Z,69.70
2018-09-08T17:51:37.820Z,69.82
2018-09-08T17:54:07.200Z,70.12
2018-09-08T17:56:37.334Z,70.12
2018-09-08T17:59:07.325Z,70.42
2018-09-08T18:01:36.618Z,70.49
2018-09-08T18:04:05.832Z,70.52
2018-09-08T18:06:36.062Z,70.59
2018-09-08T18:09:06.879Z,70.50
2018-09-08T18:11:36.027Z,70.50
2018-09-08T18:14:05.169Z,70.69
2018-09-08T18:16:34.199Z,70.76
2018-09-08T18:19:03.323Z,70.75
2018-09-08T18:21:32.526Z,71.04
2018-09-08T18:24:01.972Z,70.91
2018-09-08T18:26:31.123Z,71.13
2018-09-08T18:29:00.317Z,71.05
2018-09-08T18:31:30.386Z,71.46
2018-09-08T18:34:00.858Z,71.67
2018-09-08T18:36:30.812Z,71.60
2018-09-08T18:39:00.052Z,71.74
2018-09-08T18:41:29.643Z,71.54
2018-09-08T18:43:58.805Z,71.67
2018-09-08T18:46:27.948Z,71.79
2018-09-08T18:48:57.637Z,71.81
2018-09-08T18:51:27.493Z,72.07
2018-09-08T18:53:56.701Z,72.14
2018-09-08T18:56:25.777Z,72.32
2018-09-08T18:58:55.905Z,72.44
2018-09-08T19:01:25.105Z,72.55
2018-09-08T19:03:54.244Z,72.41
2018-09-08T19:06:24.277Z,72.45
2018-09-08T19:08:53.353Z,72.29
2018-09-08T19:11:22.474Z,72.46
2018-09-08T19:13:51.673Z,72.37
2018-09-08T19:16:21.670Z,72.50
2018-09-08T19:18:50.729Z,72.59
2018-09-08T19:21:26.180Z,72.74
2018-09-08T19:24:00.365Z,72.79
2018-09-08T19:26:30.181Z,73.01
2018-09-08T19:29:04.559Z,73.09
2018-09-08T19:31:34.968Z,73.11
2018-09-08T19:34:04.155Z,73.02
2018-09-08T19:36:33.543Z,73.13
2018-09-08T19:39:02.613Z,73.28
2018-09-08T19:41:31.731Z,73.27
2018-09-08T19:44:02.002Z,73.34
2018-09-08T19:46:36.834Z,73.57
2018-09-08T19:49:06.909Z,73.58
2018-09-08T19:51:36.168Z,73.83
2018-09-08T19:54:05.527Z,73.81
2018-09-08T20:01:27.174Z,73.82
2018-09-08T20:03:56.855Z,73.81
2018-09-08T20:06:26.869Z,73.78
2018-09-08T20:08:56.468Z,74.04
2018-09-08T20:11:25.547Z,73.90
2018-09-08T20:13:54.906Z,73.83
2018-09-08T20:16:24.070Z,73.91
2018-09-08T20:18:53.126Z,73.83
2018-09-08T20:21:22.494Z,73.93
2018-09-08T20:23:51.665Z,73.95
2018-09-08T20:26:22.156Z,74.09
2018-09-08T20:28:51.285Z,74.05
2018-09-08T20:31:20.338Z,73.98
2018-09-08T20:33:49.438Z,74.09
2018-09-08T20:36:18.510Z,73.87
2018-09-08T20:38:47.643Z,73.87
2018-09-08T20:41:16.749Z,73.82
2018-09-08T20:43:46.029Z,73.85
2018-09-08T20:46:15.399Z,73.86
2018-09-08T20:48:44.451Z,73.85
2018-09-08T20:51:13.513Z,74.00
2018-09-08T20:53:42.689Z,74.15
2018-09-08T20:56:11.815Z,74.17
2018-09-08T20:58:40.893Z,74.18
2018-09-08T21:01:10.036Z,74.13
2018-09-08T21:03:39.910Z,74.21
2018-09-08T21:06:08.975Z,74.24
2018-09-08T21:08:38.193Z,74.24
2018-09-08T21:11:08.129Z,74.49
2018-09-08T21:13:37.768Z,74.47
2018-09-08T21:16:06.966Z,74.67
2018-09-08T21:18:36.626Z,74.68
2018-09-08T21:21:05.732Z,74.62
2018-09-08T21:23:34.825Z,74.77
2018-09-08T21:26:04.807Z,74.73
2018-09-08T21:28:33.932Z,74.71
2018-09-08T21:31:03.016Z,74.67
2018-09-08T21:33:32.077Z,74.47
2018-09-08T21:36:02.262Z,74.53
2018-09-08T21:38:31.367Z,74.68
2018-09-08T21:41:00.430Z,74.68
2018-09-08T21:43:29.545Z,74.59
2018-09-08T21:45:58.584Z,74.61
2018-09-08T21:48:27.639Z,74.66
2018-09-08T21:50:56.870Z,74.64
2018-09-08T21:53:25.989Z,74.44
2018-09-08T21:55:55.117Z,74.44
2018-09-08T21:58:24.131Z,74.26
2018-09-08T22:00:57.156Z,74.36
2018-09-08T22:03:28.626Z,74.42
2018-09-08T22:05:58.876Z,74.38
2018-09-08T22:08:33.503Z,74.34
2018-09-08T22:11:05.872Z,74.33
2018-09-08T22:13:35.720Z,74.26
2018-09-08T22:16:04.867Z,74.11
2018-09-08T22:18:33.935Z,74.06
2018-09-08T22:21:20.773Z,73.99
2018-09-08T22:24:08.878Z,74.19
2018-09-08T22:26:38.161Z,74.16
2018-09-08T22:29:22.867Z,74.11
2018-09-08T22:32:07.864Z,73.96
2018-09-08T22:34:53.626Z,74.00
2018-09-08T22:37:24.723Z,74.17
2018-09-08T22:39:53.919Z,74.02
2018-09-08T22:42:23.047Z,74.14
2018-09-08T22:45:07.177Z,74.17
2018-09-08T22:47:45.889Z,74.24
2018-09-08T22:50:28.606Z,74.06
2018-09-08T22:52:58.119Z,74.14
2018-09-08T22:55:43.499Z,74.00
2018-09-08T22:58:30.018Z,74.02
2018-09-08T23:00:59.204Z,74.11
2018-09-08T23:03:44.311Z,74.08
2018-09-08T23:06:29.114Z,74.14
2018-09-08T23:09:12.962Z,74.22
2018-09-08T23:11:42.122Z,74.33
2018-09-08T23:14:28.674Z,74.24
2018-09-08T23:16:57.978Z,74.21
2018-09-08T23:19:27.051Z,74.30
2018-09-08T23:21:56.997Z,74.06
2018-09-08T23:24:26.112Z,74.26
2018-09-08T23:26:55.159Z,74.26
2018-09-08T23:29:24.251Z,74.20
2018-09-08T23:31:53.241Z,74.21
2018-09-08T23:34:22.262Z,74.21
2018-09-08T23:36:51.324Z,74.19
2018-09-08T23:39:20.544Z,74.17
2018-09-08T23:41:49.677Z,74.28
2018-09-08T23:44:18.899Z,74.28
2018-09-08T23:46:49.095Z,74.30
2018-09-08T23:49:18.678Z,74.13
2018-09-08T23:51:47.963Z,73.99
2018-09-08T23:54:17.077Z,73.99
2018-09-08T23:56:46.219Z,74.02
2018-09-08T23:59:15.270Z,74.07
